createdAt,value
2022-11-01T20:24:17.994Z,13.58
2022-11-01T20:25:14.500Z,13.49
2022-11-01T20:34:00.094Z,13.54
2022-11-01T20:35:00.002Z,13.55
2022-11-01T20:35:59.951Z,13.54
2022-11-01T20:37:27.026Z,13.54
2022-11-01T20:37:59.857Z,13.47
2022-11-01T20:38:59.813Z,13.54
2022-11-01T20:39:59.780Z,13.55
2022-11-01T20:40:59.718Z,13.52
2022-11-01T20:41:59.666Z,13.57
2022-11-01T20:42:59.621Z,13.50
2022-11-01T20:43:59.577Z,13.58
2022-11-01T20:44:59.534Z,13.50
2022-11-01T20:45:59.478Z,13.55
2022-11-01T20:46:59.438Z,13.52
2022-11-01T20:47:59.386Z,13.57
2022-11-01T20:48:59.341Z,13.52
2022-11-01T20:49:59.294Z,13.61
2022-11-01T20:50:59.251Z,13.58
2022-11-01T20:52:13.423Z,13.55
2022-11-01T20:52:59.156Z,13.52
2022-11-01T20:53:59.116Z,13.61
2022-11-01T20:54:59.067Z,13.55
2022-11-01T20:55:59.034Z,13.57
2022-11-01T20:56:58.993Z,13.58
2022-11-01T20:57:58.924Z,13.57
2022-11-01T20:58:59.004Z,13.58
2022-11-01T20:59:58.835Z,13.55
2022-11-01T21:00:58.805Z,13.57
2022-11-01T21:01:58.862Z,13.54
2022-11-01T21:02:58.698Z,13.52
2022-11-01T21:03:58.646Z,13.61
2022-11-01T21:04:58.606Z,13.57
2022-11-01T21:05:58.555Z,13.52
2022-11-01T21:08:21.943Z,13.57
2022-11-01T21:09:21.892Z,13.55
2022-11-01T21:10:21.854Z,13.55
2022-11-01T21:11:21.821Z,13.58
2022-11-01T21:12:21.822Z,13.57
2022-11-01T21:13:21.993Z,13.50
2022-11-01T21:14:21.663Z,13.55
2022-11-01T21:15:21.653Z,13.52
2022-11-01T21:16:21.572Z,13.60
2022-11-01T21:17:21.527Z,13.54
2022-11-01T21:18:21.477Z,13.55
2022-11-01T21:19:21.434Z,13.55
2022-11-01T21:20:21.397Z,13.60
2022-11-01T21:21:21.345Z,13.64
2022-11-01T21:22:21.296Z,13.57
2022-11-01T21:23:21.252Z,13.62
2022-11-01T21:24:21.204Z,13.71
2022-11-01T21:25:21.158Z,13.61
2022-11-01T21:26:21.113Z,13.61
2022-11-01T21:27:21.118Z,13.70
2022-11-01T21:28:21.021Z,13.70
2022-11-01T21:29:20.976Z,13.65
2022-11-01T21:30:20.931Z,13.62
2022-11-01T21:31:20.886Z,13.64
2022-11-01T21:32:20.836Z,13.62
2022-11-01T21:33:20.792Z,13.61
2022-11-01T21:34:20.745Z,13.68
2022-11-01T21:35:20.705Z,13.65
2022-11-01T21:36:20.659Z,13.67
2022-11-01T21:37:20.614Z,13.70
2022-11-01T21:38:20.563Z,13.71
2022-11-01T21:39:20.520Z,13.70
2022-11-01T21:40:20.470Z,13.71
2022-11-01T21:41:20.426Z,13.76
2022-11-01T21:42:20.379Z,13.76
2022-11-01T21:43:20.353Z,13.79
2022-11-01T21:44:20.287Z,13.71
2022-11-01T21:45:20.242Z,13.71
2022-11-01T21:46:20.196Z,13.76
2022-11-01T21:47:20.156Z,13.73
2022-11-01T21:48:20.102Z,13.71
2022-11-01T21:49:20.057Z,13.75
2022-11-01T21:50:20.012Z,13.79
2022-11-01T21:51:19.967Z,13.79
2022-11-01T21:52:19.919Z,13.78
2022-11-01T21:53:19.882Z,13.75
2022-11-01T21:54:19.829Z,13.85
2022-11-01T21:55:19.785Z,13.80
2022-11-01T21:56:19.738Z,13.83
2022-11-01T21:57:19.692Z,13.80
2022-11-01T21:58:19.645Z,13.86
2022-11-01T21:59:19.623Z,13.83
2022-11-01T22:00:19.553Z,13.83
2022-11-01T22:01:19.599Z,13.83
2022-11-01T22:02:19.581Z,13.86
2022-11-01T22:03:19.417Z,13.82
2022-11-01T22:04:21.298Z,13.85
2022-11-01T22:05:19.327Z,13.89
2022-11-01T22:06:19.280Z,13.79
2022-11-01T22:07:19.238Z,13.89
2022-11-01T22:23:00.791Z,13.76
2022-11-01T22:45:52.469Z,13.97
2022-11-01T22:46:58.012Z,13.97
2022-11-01T23:33:40.807Z,14.12
2022-11-01T23:34:40.708Z,14.08
2022-11-01T23:35:40.657Z,14.05
2022-11-01T23:36:40.615Z,14.03
2022-11-01T23:37:40.568Z,14.07
2022-11-01T23:38:40.522Z,14.07
